GFA524 OBBI-OTHH
Flight info
| Callsign | GFA524 |
|---|---|
| Flight time | 0h 28m |
| Altitude | 11000 |
| Route | BHR DCT ASTAD N318 HAYYA |
| Aircraft | A320/M-SDE3FGHIRWY/LB1 |
Departure
| Time | 2026-05-06 07:31 |
|---|---|
| Airport | Bahrain International Airport (OBBI) |
Arrival
| Time | 2026-05-06 07:59 |
|---|---|
| Airport | Hamad International Airport (OTHH) |
| Time | Latitude | Longitude | Altitude | Speed | Heading |
|---|---|---|---|---|---|
| 2026-05-06 06:39 | 26.26587 | 50.63489 | 21 ft | 0 kts | 213° |
| 2026-05-06 07:21 | 26.26589 | 50.63491 | 21 ft | 3 kts | 213° |
| 2026-05-06 07:21 | 26.26612 | 50.63507 | 22 ft | 4 kts | 212° |
| 2026-05-06 07:21 | 26.26630 | 50.63519 | 23 ft | 4 kts | 212° |
| 2026-05-06 07:22 | 26.26650 | 50.63534 | 24 ft | 4 kts | 191° |
| 2026-05-06 07:22 | 26.26666 | 50.63525 | 25 ft | 4 kts | 123° |
| 2026-05-06 07:22 | 26.26680 | 50.63501 | 21 ft | 3 kts | 123° |
| 2026-05-06 07:22 | 26.26682 | 50.63497 | 22 ft | 0 kts | 122° |
| 2026-05-06 07:27 | 26.26681 | 50.63500 | 21 ft | 2 kts | 119° |
| 2026-05-06 07:27 | 26.26652 | 50.63549 | 24 ft | 13 kts | 122° |
| 2026-05-06 07:28 | 26.26603 | 50.63642 | 23 ft | 13 kts | 127° |
| 2026-05-06 07:28 | 26.26566 | 50.63699 | 21 ft | 6 kts | 113° |
| 2026-05-06 07:28 | 26.26645 | 50.63779 | 21 ft | 11 kts | 357° |
| 2026-05-06 07:29 | 26.26683 | 50.63787 | 20 ft | 2 kts | 62° |
| 2026-05-06 07:29 | 26.26689 | 50.63800 | 19 ft | 0 kts | 65° |
| 2026-05-06 07:29 | 26.26696 | 50.63815 | 19 ft | 7 kts | 63° |
| 2026-05-06 07:30 | 26.26744 | 50.63866 | 17 ft | 10 kts | 30° |
| 2026-05-06 07:30 | 26.26801 | 50.63851 | 16 ft | 12 kts | 308° |
| 2026-05-06 07:30 | 26.26939 | 50.63612 | 15 ft | 75 kts | 304° |
| 2026-05-06 07:30 | 26.27342 | 50.62916 | 17 ft | 139 kts | 304° |
| 2026-05-06 07:31 | 26.27928 | 50.61883 | 397 ft | 152 kts | 304° |
| 2026-05-06 07:31 | 26.28466 | 50.60904 | 1116 ft | 149 kts | 303° |
| 2026-05-06 07:31 | 26.29008 | 50.59907 | 1711 ft | 152 kts | 305° |
| 2026-05-06 07:31 | 26.29866 | 50.59134 | 1970 ft | 175 kts | 338° |
| 2026-05-06 07:32 | 26.31131 | 50.58738 | 2206 ft | 198 kts | 346° |
| 2026-05-06 07:32 | 26.32560 | 50.58694 | 2396 ft | 224 kts | 14° |
| 2026-05-06 07:32 | 26.33914 | 50.59672 | 2647 ft | 248 kts | 54° |
| 2026-05-06 07:32 | 26.34513 | 50.61526 | 3007 ft | 266 kts | 88° |
| 2026-05-06 07:33 | 26.34454 | 50.63614 | 3660 ft | 272 kts | 98° |
| 2026-05-06 07:33 | 26.34173 | 50.65713 | 4428 ft | 275 kts | 102° |
| 2026-05-06 07:33 | 26.33825 | 50.67826 | 5184 ft | 279 kts | 102° |
| 2026-05-06 07:33 | 26.33585 | 50.69273 | 5677 ft | 283 kts | 102° |
| 2026-05-06 07:34 | 26.33243 | 50.71452 | 6414 ft | 288 kts | 101° |
| 2026-05-06 07:34 | 26.32927 | 50.73638 | 7128 ft | 292 kts | 100° |
| 2026-05-06 07:34 | 26.32627 | 50.75888 | 7877 ft | 295 kts | 99° |
| 2026-05-06 07:34 | 26.32333 | 50.78197 | 8657 ft | 298 kts | 99° |
| 2026-05-06 07:35 | 26.32049 | 50.80500 | 9436 ft | 302 kts | 98° |
| 2026-05-06 07:35 | 26.31771 | 50.82797 | 10146 ft | 306 kts | 98° |
| 2026-05-06 07:35 | 26.31474 | 50.85235 | 10396 ft | 329 kts | 98° |
| 2026-05-06 07:35 | 26.31153 | 50.87855 | 10568 ft | 353 kts | 98° |
| 2026-05-06 07:36 | 26.30811 | 50.90641 | 10800 ft | 371 kts | 98° |
| 2026-05-06 07:36 | 26.30347 | 50.93504 | 10947 ft | 378 kts | 105° |
| 2026-05-06 07:36 | 26.29439 | 50.96331 | 10982 ft | 399 kts | 115° |
| 2026-05-06 07:36 | 26.28099 | 50.99104 | 10979 ft | 411 kts | 120° |
| 2026-05-06 07:37 | 26.26691 | 51.01880 | 10976 ft | 413 kts | 120° |
| 2026-05-06 07:37 | 26.25277 | 51.04668 | 10980 ft | 413 kts | 120° |
| 2026-05-06 07:37 | 26.23868 | 51.07457 | 10982 ft | 413 kts | 120° |
| 2026-05-06 07:37 | 26.22460 | 51.10256 | 10978 ft | 414 kts | 120° |
| 2026-05-06 07:38 | 26.21056 | 51.13054 | 10979 ft | 414 kts | 120° |
| 2026-05-06 07:38 | 26.19653 | 51.15856 | 10980 ft | 414 kts | 120° |
| 2026-05-06 07:38 | 26.18255 | 51.18642 | 10980 ft | 414 kts | 120° |
| 2026-05-06 07:38 | 26.16848 | 51.21438 | 10977 ft | 414 kts | 120° |
| 2026-05-06 07:39 | 26.15437 | 51.24234 | 10993 ft | 415 kts | 120° |
| 2026-05-06 07:39 | 26.14017 | 51.27045 | 10987 ft | 415 kts | 120° |
| 2026-05-06 07:39 | 26.12604 | 51.29840 | 10990 ft | 415 kts | 120° |
| 2026-05-06 07:39 | 26.11185 | 51.32645 | 10993 ft | 415 kts | 120° |
| 2026-05-06 07:40 | 26.09771 | 51.35441 | 10989 ft | 415 kts | 120° |
| 2026-05-06 07:40 | 26.08357 | 51.38242 | 10985 ft | 415 kts | 120° |
| 2026-05-06 07:40 | 26.06943 | 51.41038 | 10989 ft | 415 kts | 120° |
| 2026-05-06 07:40 | 26.05530 | 51.43832 | 10985 ft | 415 kts | 120° |
| 2026-05-06 07:41 | 26.04115 | 51.46632 | 10987 ft | 415 kts | 120° |
| 2026-05-06 07:41 | 26.02721 | 51.49389 | 10991 ft | 415 kts | 120° |
| 2026-05-06 07:41 | 26.01306 | 51.52185 | 10986 ft | 415 kts | 120° |
| 2026-05-06 07:41 | 25.99887 | 51.54983 | 10987 ft | 415 kts | 120° |
| 2026-05-06 07:42 | 25.98469 | 51.57769 | 10989 ft | 414 kts | 120° |
| 2026-05-06 07:42 | 25.97050 | 51.60556 | 10989 ft | 414 kts | 120° |
| 2026-05-06 07:42 | 25.95635 | 51.63339 | 10987 ft | 414 kts | 120° |
| 2026-05-06 07:42 | 25.94220 | 51.66119 | 10988 ft | 413 kts | 120° |
| 2026-05-06 07:43 | 25.92806 | 51.68895 | 10992 ft | 413 kts | 120° |
| 2026-05-06 07:43 | 25.91390 | 51.71670 | 10986 ft | 413 kts | 120° |
| 2026-05-06 07:43 | 25.89979 | 51.74447 | 10985 ft | 412 kts | 119° |
| 2026-05-06 07:43 | 25.88593 | 51.77239 | 10986 ft | 412 kts | 118° |
| 2026-05-06 07:44 | 25.87229 | 51.80038 | 10988 ft | 412 kts | 118° |
| 2026-05-06 07:44 | 25.85802 | 51.82786 | 10983 ft | 412 kts | 124° |
| 2026-05-06 07:44 | 25.83945 | 51.85205 | 10990 ft | 412 kts | 136° |
| 2026-05-06 07:44 | 25.81668 | 51.87136 | 10991 ft | 412 kts | 149° |
| 2026-05-06 07:45 | 25.79081 | 51.88494 | 10989 ft | 412 kts | 161° |
| 2026-05-06 07:45 | 25.76317 | 51.89347 | 10994 ft | 412 kts | 166° |
| 2026-05-06 07:45 | 25.73539 | 51.90143 | 10992 ft | 413 kts | 165° |
| 2026-05-06 07:45 | 25.70761 | 51.90943 | 10985 ft | 413 kts | 165° |
| 2026-05-06 07:46 | 25.67976 | 51.91737 | 10977 ft | 413 kts | 167° |
| 2026-05-06 07:46 | 25.65124 | 51.92091 | 10977 ft | 413 kts | 180° |
| 2026-05-06 07:46 | 25.62272 | 51.91740 | 10974 ft | 413 kts | 193° |
| 2026-05-06 07:46 | 25.59556 | 51.90702 | 10974 ft | 413 kts | 206° |
| 2026-05-06 07:47 | 25.57113 | 51.89032 | 10970 ft | 413 kts | 219° |
| 2026-05-06 07:47 | 25.55308 | 51.87331 | 10971 ft | 413 kts | 221° |
| 2026-05-06 07:47 | 25.53247 | 51.85371 | 10972 ft | 413 kts | 221° |
| 2026-05-06 07:47 | 25.51072 | 51.83295 | 10965 ft | 413 kts | 221° |
| 2026-05-06 07:48 | 25.48841 | 51.81275 | 10969 ft | 414 kts | 214° |
| 2026-05-06 07:48 | 25.46421 | 51.79688 | 10974 ft | 393 kts | 210° |
| 2026-05-06 07:48 | 25.44109 | 51.78224 | 10871 ft | 374 kts | 210° |
| 2026-05-06 07:48 | 25.41925 | 51.76850 | 10756 ft | 358 kts | 210° |
| 2026-05-06 07:49 | 25.39802 | 51.75519 | 10638 ft | 343 kts | 210° |
| 2026-05-06 07:49 | 25.37766 | 51.74245 | 10523 ft | 330 kts | 210° |
| 2026-05-06 07:49 | 25.35813 | 51.73017 | 10353 ft | 315 kts | 210° |
| 2026-05-06 07:49 | 25.33928 | 51.71843 | 9836 ft | 307 kts | 207° |
| 2026-05-06 07:50 | 25.31915 | 51.71070 | 9108 ft | 307 kts | 189° |
| 2026-05-06 07:50 | 25.29799 | 51.71001 | 8367 ft | 305 kts | 172° |
| 2026-05-06 07:50 | 25.27755 | 51.71607 | 7564 ft | 305 kts | 157° |
| 2026-05-06 07:50 | 25.25806 | 51.72470 | 6984 ft | 298 kts | 157° |
| 2026-05-06 07:51 | 25.23902 | 51.73307 | 6458 ft | 291 kts | 157° |
| 2026-05-06 07:51 | 25.22027 | 51.74127 | 6045 ft | 288 kts | 157° |
| 2026-05-06 07:51 | 25.20160 | 51.74944 | 5635 ft | 289 kts | 157° |
| 2026-05-06 07:51 | 25.18295 | 51.75761 | 5234 ft | 287 kts | 156° |
| 2026-05-06 07:52 | 25.16442 | 51.76574 | 4839 ft | 285 kts | 156° |
| 2026-05-06 07:52 | 25.14605 | 51.77380 | 4436 ft | 283 kts | 156° |
| 2026-05-06 07:52 | 25.12785 | 51.78178 | 4023 ft | 281 kts | 156° |
| 2026-05-06 07:52 | 25.10972 | 51.78972 | 3729 ft | 275 kts | 156° |
| 2026-05-06 07:53 | 25.09226 | 51.79720 | 3610 ft | 263 kts | 161° |
| 2026-05-06 07:53 | 25.07456 | 51.79836 | 3487 ft | 254 kts | 194° |
| 2026-05-06 07:53 | 25.05982 | 51.78859 | 3291 ft | 248 kts | 230° |
| 2026-05-06 07:53 | 25.05182 | 51.77195 | 3084 ft | 248 kts | 248° |
| 2026-05-06 07:54 | 25.04549 | 51.75431 | 2836 ft | 247 kts | 251° |
| 2026-05-06 07:54 | 25.04386 | 51.73584 | 2603 ft | 241 kts | 285° |
| 2026-05-06 07:54 | 25.05097 | 51.72032 | 2502 ft | 224 kts | 315° |
| 2026-05-06 07:54 | 25.06318 | 51.71136 | 2487 ft | 205 kts | 341° |
| 2026-05-06 07:55 | 25.07617 | 51.70569 | 2494 ft | 198 kts | 340° |
| 2026-05-06 07:55 | 25.08887 | 51.70012 | 2495 ft | 195 kts | 341° |
| 2026-05-06 07:55 | 25.10147 | 51.69459 | 2497 ft | 194 kts | 340° |
| 2026-05-06 07:55 | 25.11400 | 51.68908 | 2498 ft | 194 kts | 341° |
| 2026-05-06 07:56 | 25.12656 | 51.68356 | 2501 ft | 194 kts | 341° |
| 2026-05-06 07:56 | 25.13913 | 51.67802 | 2493 ft | 194 kts | 341° |
| 2026-05-06 07:56 | 25.15169 | 51.67245 | 2197 ft | 197 kts | 341° |
| 2026-05-06 07:56 | 25.16437 | 51.66686 | 1884 ft | 196 kts | 341° |
| 2026-05-06 07:57 | 25.17685 | 51.66137 | 1611 ft | 189 kts | 340° |
| 2026-05-06 07:57 | 25.18872 | 51.65614 | 1373 ft | 177 kts | 340° |
| 2026-05-06 07:57 | 25.19973 | 51.65129 | 1148 ft | 164 kts | 341° |
| 2026-05-06 07:57 | 25.20973 | 51.64689 | 972 ft | 148 kts | 341° |
| 2026-05-06 07:58 | 25.21898 | 51.64282 | 805 ft | 144 kts | 341° |
| 2026-05-06 07:58 | 25.22812 | 51.63881 | 637 ft | 142 kts | 341° |
| 2026-05-06 07:58 | 25.23735 | 51.63475 | 453 ft | 140 kts | 341° |
| 2026-05-06 07:58 | 25.24612 | 51.63089 | 269 ft | 135 kts | 342° |
| 2026-05-06 07:59 | 25.25461 | 51.62715 | 94 ft | 135 kts | 342° |
| 2026-05-06 07:59 | 25.26292 | 51.62362 | 24 ft | 110 kts | 336° |
| 2026-05-06 07:59 | 25.26842 | 51.62124 | 20 ft | 60 kts | 339° |
| 2026-05-06 07:59 | 25.27089 | 51.62016 | 20 ft | 26 kts | 338° |
| 2026-05-06 08:00 | 25.27277 | 51.61932 | 22 ft | 34 kts | 335° |
| 2026-05-06 08:00 | 25.27435 | 51.61775 | 24 ft | 18 kts | 309° |
| 2026-05-06 08:00 | 25.27472 | 51.61711 | 23 ft | 3 kts | 299° |
| 2026-05-06 08:00 | 25.27486 | 51.61688 | 23 ft | 9 kts | 307° |
| 2026-05-06 08:01 | 25.27538 | 51.61616 | 23 ft | 6 kts | 308° |
| 2026-05-06 08:01 | 25.27549 | 51.61580 | 22 ft | 5 kts | 274° |
| 2026-05-06 08:01 | 25.27540 | 51.61550 | 23 ft | 4 kts | 244° |
| 2026-05-06 08:01 | 25.27525 | 51.61532 | 24 ft | 3 kts | 212° |
| 2026-05-06 08:02 | 25.27510 | 51.61528 | 22 ft | 2 kts | 191° |
| 2026-05-06 08:02 | 25.27494 | 51.61527 | 22 ft | 2 kts | 180° |
| 2026-05-06 08:02 | 25.27453 | 51.61540 | 22 ft | 12 kts | 161° |
| 2026-05-06 08:02 | 25.27355 | 51.61586 | 22 ft | 21 kts | 157° |
| 2026-05-06 08:03 | 25.27201 | 51.61653 | 22 ft | 25 kts | 159° |
| 2026-05-06 08:03 | 25.27032 | 51.61728 | 23 ft | 27 kts | 157° |
| 2026-05-06 08:03 | 25.26851 | 51.61808 | 22 ft | 29 kts | 159° |
| 2026-05-06 08:03 | 25.26679 | 51.61885 | 22 ft | 21 kts | 159° |
| 2026-05-06 08:04 | 25.26589 | 51.61924 | 22 ft | 10 kts | 158° |
| 2026-05-06 08:04 | 25.26527 | 51.61898 | 23 ft | 14 kts | 250° |
| 2026-05-06 08:04 | 25.26486 | 51.61782 | 22 ft | 19 kts | 248° |
| 2026-05-06 08:04 | 25.26446 | 51.61674 | 22 ft | 11 kts | 248° |
| 2026-05-06 08:05 | 25.26433 | 51.61639 | 22 ft | 2 kts | 248° |
| 2026-05-06 08:05 | 25.26424 | 51.61614 | 23 ft | 5 kts | 249° |
| 2026-05-06 08:05 | 25.26409 | 51.61570 | 22 ft | 7 kts | 249° |
| 2026-05-06 08:05 | 25.26393 | 51.61555 | 22 ft | 3 kts | 191° |
| 2026-05-06 08:06 | 25.26363 | 51.61566 | 23 ft | 6 kts | 158° |
| 2026-05-06 08:06 | 25.26321 | 51.61584 | 22 ft | 6 kts | 159° |
| 2026-05-06 08:06 | 25.26308 | 51.61589 | 22 ft | 0 kts | 159° |
| 2026-05-06 08:06 | 25.26307 | 51.61590 | 22 ft | 1 kts | 159° |
| 2026-05-06 08:07 | 25.26306 | 51.61590 | 22 ft | 0 kts | 159° |